sensor_id;sensor_type;location;lat;lon;timestamp;temperature;humidity
5274;DHT22;56254;50.956;7.010;2022-10-19T00:01:40;12.50;99.90
5274;DHT22;56254;50.956;7.010;2022-10-19T00:04:06;12.40;99.90
5274;DHT22;56254;50.956;7.010;2022-10-19T00:06:34;12.40;99.90
5274;DHT22;56254;50.956;7.010;2022-10-19T00:09:15;12.20;99.90
5274;DHT22;56254;50.956;7.010;2022-10-19T00:11:44;12.20;99.90
5274;DHT22;56254;50.956;7.010;2022-10-19T00:14:13;12.10;99.90
5274;DHT22;56254;50.956;7.010;2022-10-19T00:16:40;12.20;99.90
5274;DHT22;56254;50.956;7.010;2022-10-19T00:19:10;12.10;99.90
5274;DHT22;56254;50.956;7.010;2022-10-19T00:21:36;12.10;99.90
5274;DHT22;56254;50.956;7.010;2022-10-19T00:24:04;12.00;99.90
5274;DHT22;56254;50.956;7.010;2022-10-19T00:26:29;12.00;99.90
5274;DHT22;56254;50.956;7.010;2022-10-19T00:28:55;11.90;99.90
5274;DHT22;56254;50.956;7.010;2022-10-19T00:31:22;11.90;99.90
5274;DHT22;56254;50.956;7.010;2022-10-19T00:33:47;11.80;99.90
5274;DHT22;56254;50.956;7.010;2022-10-19T00:36:22;11.80;99.90
5274;DHT22;56254;50.956;7.010;2022-10-19T00:38:48;11.70;99.90
5274;DHT22;56254;50.956;7.010;2022-10-19T00:41:14;11.60;99.90
5274;DHT22;56254;50.956;7.010;2022-10-19T00:43:59;11.70;99.90
5274;DHT22;56254;50.956;7.010;2022-10-19T00:46:27;11.70;99.90
5274;DHT22;56254;50.956;7.010;2022-10-19T00:48:56;11.70;99.90
5274;DHT22;56254;50.956;7.010;2022-10-19T00:51:23;11.70;99.90
5274;DHT22;56254;50.956;7.010;2022-10-19T00:53:50;11.70;99.90
5274;DHT22;56254;50.956;7.010;2022-10-19T00:56:16;11.80;99.90
5274;DHT22;56254;50.956;7.010;2022-10-19T00:58:42;11.80;99.90
5274;DHT22;56254;50.956;7.010;2022-10-19T01:01:12;11.80;99.90
5274;DHT22;56254;50.956;7.010;2022-10-19T01:03:39;11.80;99.90
5274;DHT22;56254;50.956;7.010;2022-10-19T01:06:05;11.80;99.90
5274;DHT22;56254;50.956;7.010;2022-10-19T01:08:32;11.70;99.90
5274;DHT22;56254;50.956;7.010;2022-10-19T01:16:34;11.50;99.90
5274;DHT22;56254;50.956;7.010;2022-10-19T01:32:57;11.50;99.90
5274;DHT22;56254;50.956;7.010;2022-10-19T01:35:36;11.60;99.90
5274;DHT22;56254;50.956;7.010;2022-10-19T01:40:54;11.50;99.90
5274;DHT22;56254;50.956;7.010;2022-10-19T01:43:33;11.20;99.90
5274;DHT22;56254;50.956;7.010;2022-10-19T01:46:10;11.30;99.90
5274;DHT22;56254;50.956;7.010;2022-10-19T01:48:40;11.30;99.90
5274;DHT22;56254;50.956;7.010;2022-10-19T01:51:15;11.20;99.90
5274;DHT22;56254;50.956;7.010;2022-10-19T01:53:46;11.10;99.90
5274;DHT22;56254;50.956;7.010;2022-10-19T01:56:18;11.00;99.90
5274;DHT22;56254;50.956;7.010;2022-10-19T01:58:46;11.00;99.90
5274;DHT22;56254;50.956;7.010;2022-10-19T02:01:16;10.70;99.90
5274;DHT22;56254;50.956;7.010;2022-10-19T02:03:42;10.80;99.90
5274;DHT22;56254;50.956;7.010;2022-10-19T02:06:10;10.60;99.90
5274;DHT22;56254;50.956;7.010;2022-10-19T02:08:54;10.70;99.90
5274;DHT22;56254;50.956;7.010;2022-10-19T02:11:23;10.60;99.90
5274;DHT22;56254;50.956;7.010;2022-10-19T02:13:53;10.60;99.90
5274;DHT22;56254;50.956;7.010;2022-10-19T02:16:28;10.60;99.90
5274;DHT22;56254;50.956;7.010;2022-10-19T02:18:59;10.50;99.90
5274;DHT22;56254;50.956;7.010;2022-10-19T02:21:26;10.60;99.90
5274;DHT22;56254;50.956;7.010;2022-10-19T02:23:52;10.70;99.90
5274;DHT22;56254;50.956;7.010;2022-10-19T02:26:18;10.80;99.90
5274;DHT22;56254;50.956;7.010;2022-10-19T02:28:45;10.80;99.90
5274;DHT22;56254;50.956;7.010;2022-10-19T02:31:12;10.80;99.90
5274;DHT22;56254;50.956;7.010;2022-10-19T02:33:41;10.80;99.90
5274;DHT22;56254;50.956;7.010;2022-10-19T02:36:06;10.80;99.90
5274;DHT22;56254;50.956;7.010;2022-10-19T02:38:32;10.80;99.90
5274;DHT22;56254;50.956;7.010;2022-10-19T02:44:02;10.70;99.90
5274;DHT22;56254;50.956;7.010;2022-10-19T02:46:34;10.70;99.90
5274;DHT22;56254;50.956;7.010;2022-10-19T02:49:01;10.70;99.90
5274;DHT22;56254;50.956;7.010;2022-10-19T02:51:36;10.70;99.90
5274;DHT22;56254;50.956;7.010;2022-10-19T02:54:04;10.70;99.90
5274;DHT22;56254;50.956;7.010;2022-10-19T02:56:32;10.60;99.90
5274;DHT22;56254;50.956;7.010;2022-10-19T02:58:57;10.60;99.90
5274;DHT22;56254;50.956;7.010;2022-10-19T03:01:23;10.60;99.90
5274;DHT22;56254;50.956;7.010;2022-10-19T03:03:50;10.50;99.90
5274;DHT22;56254;50.956;7.010;2022-10-19T03:06:16;10.50;99.90
5274;DHT22;56254;50.956;7.010;2022-10-19T03:08:42;10.50;99.90
5274;DHT22;56254;50.956;7.010;2022-10-19T03:11:09;10.60;99.90
5274;DHT22;56254;50.956;7.010;2022-10-19T03:13:34;10.50;99.90
5274;DHT22;56254;50.956;7.010;2022-10-19T03:16:08;10.60;99.90
5274;DHT22;56254;50.956;7.010;2022-10-19T03:18:34;10.50;99.90
5274;DHT22;56254;50.956;7.010;2022-10-19T03:21:04;10.50;99.90
5274;DHT22;56254;50.956;7.010;2022-10-19T03:23:30;10.50;99.90
5274;DHT22;56254;50.956;7.010;2022-10-19T03:25:56;10.50;99.90
5274;DHT22;56254;50.956;7.010;2022-10-19T03:28:21;10.60;99.90
5274;DHT22;56254;50.956;7.010;2022-10-19T03:30:48;10.60;99.90
5274;DHT22;56254;50.956;7.010;2022-10-19T03:33:14;10.50;99.90
5274;DHT22;56254;50.956;7.010;2022-10-19T03:35:40;10.50;99.90
5274;DHT22;56254;50.956;7.010;2022-10-19T03:38:05;10.40;99.90
5274;DHT22;56254;50.956;7.010;2022-10-19T03:40:31;10.50;99.90
5274;DHT22;56254;50.956;7.010;2022-10-19T03:42:57;10.50;99.90
5274;DHT22;56254;50.956;7.010;2022-10-19T03:45:22;10.40;99.90
5274;DHT22;56254;50.956;7.010;2022-10-19T03:47:49;10.40;99.90
5274;DHT22;56254;50.956;7.010;2022-10-19T03:50:15;10.40;99.90
5274;DHT22;56254;50.956;7.010;2022-10-19T03:52:42;10.30;99.90
5274;DHT22;56254;50.956;7.010;2022-10-19T03:55:08;10.20;99.90
5274;DHT22;56254;50.956;7.010;2022-10-19T03:57:35;10.10;99.90
5274;DHT22;56254;50.956;7.010;2022-10-19T04:00:00;10.10;99.90
5274;DHT22;56254;50.956;7.010;2022-10-19T04:02:26;10.00;99.90
5274;DHT22;56254;50.956;7.010;2022-10-19T04:04:52;9.90;99.90
5274;DHT22;56254;50.956;7.010;2022-10-19T04:07:17;9.90;99.90
5274;DHT22;56254;50.956;7.010;2022-10-19T04:09:43;9.90;99.90
5274;DHT22;56254;50.956;7.010;2022-10-19T04:12:09;9.80;99.90
5274;DHT22;56254;50.956;7.010;2022-10-19T04:14:34;9.90;99.90
5274;DHT22;56254;50.956;7.010;2022-10-19T04:17:01;9.80;99.90
5274;DHT22;56254;50.956;7.010;2022-10-19T04:19:27;9.80;99.90
5274;DHT22;56254;50.956;7.010;2022-10-19T04:21:52;9.70;99.90
5274;DHT22;56254;50.956;7.010;2022-10-19T04:24:19;9.80;99.90
5274;DHT22;56254;50.956;7.010;2022-10-19T04:26:50;9.70;99.90
5274;DHT22;56254;50.956;7.010;2022-10-19T04:29:18;9.80;99.90
5274;DHT22;56254;50.956;7.010;2022-10-19T04:31:45;9.80;99.90
5274;DHT22;56254;50.956;7.010;2022-10-19T04:34:12;9.70;99.90
5274;DHT22;56254;50.956;7.010;2022-10-19T04:36:38;9.70;99.90
5274;DHT22;56254;50.956;7.010;2022-10-19T04:39:04;9.70;99.90
5274;DHT22;56254;50.956;7.010;2022-10-19T04:41:30;9.70;99.90
5274;DHT22;56254;50.956;7.010;2022-10-19T04:43:59;9.70;99.90
5274;DHT22;56254;50.956;7.010;2022-10-19T04:46:26;9.80;99.90
5274;DHT22;56254;50.956;7.010;2022-10-19T04:48:52;9.80;99.90
5274;DHT22;56254;50.956;7.010;2022-10-19T04:51:19;9.80;99.90
5274;DHT22;56254;50.956;7.010;2022-10-19T04:53:45;9.60;99.90
5274;DHT22;56254;50.956;7.010;2022-10-19T04:56:14;9.70;99.90
5274;DHT22;56254;50.956;7.010;2022-10-19T04:58:40;9.70;99.90
5274;DHT22;56254;50.956;7.010;2022-10-19T05:01:15;9.60;99.90
5274;DHT22;56254;50.956;7.010;2022-10-19T05:03:41;9.60;99.90
5274;DHT22;56254;50.956;7.010;2022-10-19T05:06:07;9.70;99.90
5274;DHT22;56254;50.956;7.010;2022-10-19T05:08:34;9.70;99.90
5274;DHT22;56254;50.956;7.010;2022-10-19T05:11:05;9.70;99.90
5274;DHT22;56254;50.956;7.010;2022-10-19T05:13:33;9.70;99.90
5274;DHT22;56254;50.956;7.010;2022-10-19T05:16:00;9.70;99.90
5274;DHT22;56254;50.956;7.010;2022-10-19T05:18:26;9.80;99.90
5274;DHT22;56254;50.956;7.010;2022-10-19T05:21:05;9.90;99.90
5274;DHT22;56254;50.956;7.010;2022-10-19T05:23:32;9.80;99.90
5274;DHT22;56254;50.956;7.010;2022-10-19T05:26:00;9.80;99.90
5274;DHT22;56254;50.956;7.010;2022-10-19T05:28:25;9.80;99.90
5274;DHT22;56254;50.956;7.010;2022-10-19T05:30:51;9.80;99.90
5274;DHT22;56254;50.956;7.010;2022-10-19T05:33:17;9.90;99.90
5274;DHT22;56254;50.956;7.010;2022-10-19T05:35:42;9.90;99.90
5274;DHT22;56254;50.956;7.010;2022-10-19T05:38:08;9.80;99.90
5274;DHT22;56254;50.956;7.010;2022-10-19T05:40:33;9.90;99.90
5274;DHT22;56254;50.956;7.010;2022-10-19T05:42:59;9.80;99.90
5274;DHT22;56254;50.956;7.010;2022-10-19T05:45:25;9.70;99.90
5274;DHT22;56254;50.956;7.010;2022-10-19T05:47:50;9.80;99.90
5274;DHT22;56254;50.956;7.010;2022-10-19T05:50:16;9.60;99.90
5274;DHT22;56254;50.956;7.010;2022-10-19T05:52:42;9.70;99.90
5274;DHT22;56254;50.956;7.010;2022-10-19T05:55:08;9.60;99.90
5274;DHT22;56254;50.956;7.010;2022-10-19T05:57:33;9.60;99.90
5274;DHT22;56254;50.956;7.010;2022-10-19T05:59:59;9.60;99.90
5274;DHT22;56254;50.956;7.010;2022-10-19T06:02:25;9.60;99.90
5274;DHT22;56254;50.956;7.010;2022-10-19T06:04:50;9.60;99.90
5274;DHT22;56254;50.956;7.010;2022-10-19T06:07:16;9.50;99.90
5274;DHT22;56254;50.956;7.010;2022-10-19T06:09:48;9.50;99.90
5274;DHT22;56254;50.956;7.010;2022-10-19T06:12:13;9.50;99.90
5274;DHT22;56254;50.956;7.010;2022-10-19T06:14:39;9.40;99.90
5274;DHT22;56254;50.956;7.010;2022-10-19T06:17:05;9.60;99.90
5274;DHT22;56254;50.956;7.010;2022-10-19T06:19:32;9.60;99.90
5274;DHT22;56254;50.956;7.010;2022-10-19T06:21:58;9.70;99.90
5274;DHT22;56254;50.956;7.010;2022-10-19T06:24:23;9.60;99.90
5274;DHT22;56254;50.956;7.010;2022-10-19T06:26:49;9.80;99.90
5274;DHT22;56254;50.956;7.010;2022-10-19T06:29:14;9.70;99.90
5274;DHT22;56254;50.956;7.010;2022-10-19T06:31:40;9.70;99.90
5274;DHT22;56254;50.956;7.010;2022-10-19T06:34:06;9.80;99.90
5274;DHT22;56254;50.956;7.010;2022-10-19T06:36:32;9.80;99.90
5274;DHT22;56254;50.956;7.010;2022-10-19T06:38:58;9.70;99.90
5274;DHT22;56254;50.956;7.010;2022-10-19T06:41:27;9.80;99.90
5274;DHT22;56254;50.956;7.010;2022-10-19T06:43:53;9.80;99.90
5274;DHT22;56254;50.956;7.010;2022-10-19T06:46:22;9.90;99.90
5274;DHT22;56254;50.956;7.010;2022-10-19T06:48:59;9.80;99.90
5274;DHT22;56254;50.956;7.010;2022-10-19T06:51:27;9.80;99.90
5274;DHT22;56254;50.956;7.010;2022-10-19T06:53:55;9.90;99.90
5274;DHT22;56254;50.956;7.010;2022-10-19T06:56:22;10.00;99.90
5274;DHT22;56254;50.956;7.010;2022-10-19T06:58:52;9.90;99.90
5274;DHT22;56254;50.956;7.010;2022-10-19T07:01:17;10.10;99.90
5274;DHT22;56254;50.956;7.010;2022-10-19T07:03:43;10.10;99.90
5274;DHT22;56254;50.956;7.010;2022-10-19T07:06:11;10.20;99.90
5274;DHT22;56254;50.956;7.010;2022-10-19T07:08:38;10.20;99.90
5274;DHT22;56254;50.956;7.010;2022-10-19T07:11:08;10.10;99.90
5274;DHT22;56254;50.956;7.010;2022-10-19T07:13:34;10.10;99.90
5274;DHT22;56254;50.956;7.010;2022-10-19T07:16:07;10.00;99.90
5274;DHT22;56254;50.956;7.010;2022-10-19T07:18:35;10.10;99.90
5274;DHT22;56254;50.956;7.010;2022-10-19T07:21:03;10.10;99.90
5274;DHT22;56254;50.956;7.010;2022-10-19T07:23:31;10.10;99.90
5274;DHT22;56254;50.956;7.010;2022-10-19T07:25:57;10.00;99.90
5274;DHT22;56254;50.956;7.010;2022-10-19T07:28:27;10.00;99.90
5274;DHT22;56254;50.956;7.010;2022-10-19T07:30:53;10.10;99.90
5274;DHT22;56254;50.956;7.010;2022-10-19T07:33:20;10.00;99.90
5274;DHT22;56254;50.956;7.010;2022-10-19T07:35:46;10.10;99.90
5274;DHT22;56254;50.956;7.010;2022-10-19T07:38:11;10.20;99.90
5274;DHT22;56254;50.956;7.010;2022-10-19T07:40:37;10.20;99.90
5274;DHT22;56254;50.956;7.010;2022-10-19T07:43:04;10.30;99.90
5274;DHT22;56254;50.956;7.010;2022-10-19T07:45:30;10.40;99.90
5274;DHT22;56254;50.956;7.010;2022-10-19T07:47:58;10.40;99.90
5274;DHT22;56254;50.956;7.010;2022-10-19T07:50:24;10.50;99.90
5274;DHT22;56254;50.956;7.010;2022-10-19T07:52:52;10.60;99.90
5274;DHT22;56254;50.956;7.010;2022-10-19T07:55:18;10.70;99.90
5274;DHT22;56254;50.956;7.010;2022-10-19T07:57:47;10.80;99.90
5274;DHT22;56254;50.956;7.010;2022-10-19T08:00:14;10.90;99.90
5274;DHT22;56254;50.956;7.010;2022-10-19T08:02:40;11.00;99.90
5274;DHT22;56254;50.956;7.010;2022-10-19T08:05:06;11.10;99.90
5274;DHT22;56254;50.956;7.010;2022-10-19T08:07:32;11.30;99.90
5274;DHT22;56254;50.956;7.010;2022-10-19T08:09:58;11.60;99.90
5274;DHT22;56254;50.956;7.010;2022-10-19T08:12:24;11.50;99.90
5274;DHT22;56254;50.956;7.010;2022-10-19T08:14:49;11.60;99.90
5274;DHT22;56254;50.956;7.010;2022-10-19T08:17:15;11.70;99.90
5274;DHT22;56254;50.956;7.010;2022-10-19T08:19:44;11.80;99.90
5274;DHT22;56254;50.956;7.010;2022-10-19T08:22:10;11.90;99.90
5274;DHT22;56254;50.956;7.010;2022-10-19T08:24:36;12.10;99.90
5274;DHT22;56254;50.956;7.010;2022-10-19T08:27:02;12.10;99.90
5274;DHT22;56254;50.956;7.010;2022-10-19T08:29:28;12.20;99.90
5274;DHT22;56254;50.956;7.010;2022-10-19T08:31:54;12.30;99.90
5274;DHT22;56254;50.956;7.010;2022-10-19T08:34:19;12.40;99.90
5274;DHT22;56254;50.956;7.010;2022-10-19T08:36:45;12.50;99.90
5274;DHT22;56254;50.956;7.010;2022-10-19T08:39:12;12.50;99.90
5274;DHT22;56254;50.956;7.010;2022-10-19T08:49:45;13.00;99.90
5274;DHT22;56254;50.956;7.010;2022-10-19T08:52:21;13.10;99.90
5274;DHT22;56254;50.956;7.010;2022-10-19T08:58:03;13.30;99.90
5274;DHT22;56254;50.956;7.010;2022-10-19T09:00:48;13.50;99.90
5274;DHT22;56254;50.956;7.010;2022-10-19T09:03:46;13.60;99.90
5274;DHT22;56254;50.956;7.010;2022-10-19T09:06:41;13.70;99.90
5274;DHT22;56254;50.956;7.010;2022-10-19T09:09:13;13.70;99.90
5274;DHT22;56254;50.956;7.010;2022-10-19T09:11:44;13.90;99.90
5274;DHT22;56254;50.956;7.010;2022-10-19T09:14:30;13.90;99.90
5274;DHT22;56254;50.956;7.010;2022-10-19T09:17:01;14.10;99.90
5274;DHT22;56254;50.956;7.010;2022-10-19T09:19:28;14.20;99.90
5274;DHT22;56254;50.956;7.010;2022-10-19T09:22:00;14.20;99.90
5274;DHT22;56254;50.956;7.010;2022-10-19T09:24:53;14.30;99.90
5274;DHT22;56254;50.956;7.010;2022-10-19T09:27:22;14.30;99.90
5274;DHT22;56254;50.956;7.010;2022-10-19T09:29:56;14.50;99.90
5274;DHT22;56254;50.956;7.010;2022-10-19T09:32:31;14.60;99.90
5274;DHT22;56254;50.956;7.010;2022-10-19T09:35:03;14.50;99.90
5274;DHT22;56254;50.956;7.010;2022-10-19T09:37:31;14.70;99.90
5274;DHT22;56254;50.956;7.010;2022-10-19T09:39:58;14.70;99.90
5274;DHT22;56254;50.956;7.010;2022-10-19T09:42:30;14.80;99.90
5274;DHT22;56254;50.956;7.010;2022-10-19T09:45:32;14.90;99.90
5274;DHT22;56254;50.956;7.010;2022-10-19T09:48:01;14.90;99.90
5274;DHT22;56254;50.956;7.010;2022-10-19T09:50:30;15.10;99.90
5274;DHT22;56254;50.956;7.010;2022-10-19T09:52:57;15.10;99.90
5274;DHT22;56254;50.956;7.010;2022-10-19T09:55:38;15.20;99.90
5274;DHT22;56254;50.956;7.010;2022-10-19T09:58:17;15.30;99.90
5274;DHT22;56254;50.956;7.010;2022-10-19T10:00:46;15.50;99.90
5274;DHT22;56254;50.956;7.010;2022-10-19T10:06:07;15.50;99.90
5274;DHT22;56254;50.956;7.010;2022-10-19T10:08:47;15.70;99.90
5274;DHT22;56254;50.956;7.010;2022-10-19T10:11:21;15.80;99.90
5274;DHT22;56254;50.956;7.010;2022-10-19T10:13:52;15.80;99.90
5274;DHT22;56254;50.956;7.010;2022-10-19T10:16:21;15.80;99.90
5274;DHT22;56254;50.956;7.010;2022-10-19T10:18:53;16.00;99.90
5274;DHT22;56254;50.956;7.010;2022-10-19T10:24:03;15.80;99.90
5274;DHT22;56254;50.956;7.010;2022-10-19T10:26:30;16.10;99.90
5274;DHT22;56254;50.956;7.010;2022-10-19T10:28:56;16.20;99.90
5274;DHT22;56254;50.956;7.010;2022-10-19T10:31:28;16.30;99.90
5274;DHT22;56254;50.956;7.010;2022-10-19T10:33:59;16.40;99.90
5274;DHT22;56254;50.956;7.010;2022-10-19T10:36:30;16.40;99.40
5274;DHT22;56254;50.956;7.010;2022-10-19T10:39:04;16.40;99.70
5274;DHT22;56254;50.956;7.010;2022-10-19T10:41:38;16.70;98.50
5274;DHT22;56254;50.956;7.010;2022-10-19T10:44:07;16.80;98.50
5274;DHT22;56254;50.956;7.010;2022-10-19T10:46:49;16.90;98.40
5274;DHT22;56254;50.956;7.010;2022-10-19T10:49:20;16.70;98.40
5274;DHT22;56254;50.956;7.010;2022-10-19T10:51:56;16.70;97.40
5274;DHT22;56254;50.956;7.010;2022-10-19T10:54:27;17.00;97.00
5274;DHT22;56254;50.956;7.010;2022-10-19T10:57:01;17.00;96.50
5274;DHT22;56254;50.956;7.010;2022-10-19T11:05:24;17.20;95.00
5274;DHT22;56254;50.956;7.010;2022-10-19T11:08:12;17.20;95.70
5274;DHT22;56254;50.956;7.010;2022-10-19T11:13:40;17.40;95.70
5274;DHT22;56254;50.956;7.010;2022-10-19T11:16:18;17.60;94.90
5274;DHT22;56254;50.956;7.010;2022-10-19T11:19:16;17.90;93.80
5274;DHT22;56254;50.956;7.010;2022-10-19T11:22:39;17.90;93.30
5274;DHT22;56254;50.956;7.010;2022-10-19T11:27:27;18.00;92.90
5274;DHT22;56254;50.956;7.010;2022-10-19T11:32:33;17.70;92.40
5274;DHT22;56254;50.956;7.010;2022-10-19T11:35:13;17.80;93.40
5274;DHT22;56254;50.956;7.010;2022-10-19T11:38:07;17.90;91.50
5274;DHT22;56254;50.956;7.010;2022-10-19T11:40:44;18.20;90.10
5274;DHT22;56254;50.956;7.010;2022-10-19T11:46:14;19.00;89.00
5274;DHT22;56254;50.956;7.010;2022-10-19T11:57:48;20.20;86.40
5274;DHT22;56254;50.956;7.010;2022-10-19T12:00:19;20.20;84.80
5274;DHT22;56254;50.956;7.010;2022-10-19T12:06:00;19.90;84.60
5274;DHT22;56254;50.956;7.010;2022-10-19T12:11:33;19.70;85.70
5274;DHT22;56254;50.956;7.010;2022-10-19T12:14:07;19.40;86.30
5274;DHT22;56254;50.956;7.010;2022-10-19T12:16:40;19.50;86.80
5274;DHT22;56254;50.956;7.010;2022-10-19T12:19:16;19.50;85.70
5274;DHT22;56254;50.956;7.010;2022-10-19T12:21:43;19.50;86.00
5274;DHT22;56254;50.956;7.010;2022-10-19T12:24:16;19.60;86.30
5274;DHT22;56254;50.956;7.010;2022-10-19T12:26:46;19.60;86.40
5274;DHT22;56254;50.956;7.010;2022-10-19T12:29:23;19.60;86.10
5274;DHT22;56254;50.956;7.010;2022-10-19T12:31:50;19.50;86.00
5274;DHT22;56254;50.956;7.010;2022-10-19T12:34:25;19.50;86.60
5274;DHT22;56254;50.956;7.010;2022-10-19T12:37:06;19.60;86.80
5274;DHT22;56254;50.956;7.010;2022-10-19T12:47:26;19.80;86.50
5274;DHT22;56254;50.956;7.010;2022-10-19T12:49:56;20.00;86.80
5274;DHT22;56254;50.956;7.010;2022-10-19T12:52:42;19.90;86.00
5274;DHT22;56254;50.956;7.010;2022-10-19T12:55:29;19.80;86.50
5274;DHT22;56254;50.956;7.010;2022-10-19T12:58:18;19.90;86.40
5274;DHT22;56254;50.956;7.010;2022-10-19T13:00:59;19.90;86.90
5274;DHT22;56254;50.956;7.010;2022-10-19T13:03:40;19.80;87.20
5274;DHT22;56254;50.956;7.010;2022-10-19T13:06:29;20.00;86.80
5274;DHT22;56254;50.956;7.010;2022-10-19T13:08:59;20.00;86.70
5274;DHT22;56254;50.956;7.010;2022-10-19T13:11:26;20.00;86.70
5274;DHT22;56254;50.956;7.010;2022-10-19T13:19:24;20.10;87.10
5274;DHT22;56254;50.956;7.010;2022-10-19T13:21:51;20.10;87.20
5274;DHT22;56254;50.956;7.010;2022-10-19T13:38:10;20.00;88.00
5274;DHT22;56254;50.956;7.010;2022-10-19T13:41:22;19.90;87.90
5274;DHT22;56254;50.956;7.010;2022-10-19T13:46:13;19.70;88.60
5274;DHT22;56254;50.956;7.010;2022-10-19T13:57:22;19.60;88.50
5274;DHT22;56254;50.956;7.010;2022-10-19T14:00:24;19.50;89.10
5274;DHT22;56254;50.956;7.010;2022-10-19T14:06:37;19.50;88.60
5274;DHT22;56254;50.956;7.010;2022-10-19T14:12:45;19.40;88.70
5274;DHT22;56254;50.956;7.010;2022-10-19T14:15:27;19.40;89.20
5274;DHT22;56254;50.956;7.010;2022-10-19T14:17:57;19.30;89.10
5274;DHT22;56254;50.956;7.010;2022-10-19T14:20:33;19.30;89.60
5274;DHT22;56254;50.956;7.010;2022-10-19T14:23:20;19.20;89.90
5274;DHT22;56254;50.956;7.010;2022-10-19T14:26:13;19.10;89.60
5274;DHT22;56254;50.956;7.010;2022-10-19T14:28:50;19.20;89.70
5274;DHT22;56254;50.956;7.010;2022-10-19T14:31:21;19.10;90.20
5274;DHT22;56254;50.956;7.010;2022-10-19T14:33:52;19.00;90.40
5274;DHT22;56254;50.956;7.010;2022-10-19T14:36:26;19.00;90.40
5274;DHT22;56254;50.956;7.010;2022-10-19T14:38:56;19.00;90.30
5274;DHT22;56254;50.956;7.010;2022-10-19T14:41:39;19.00;90.20
5274;DHT22;56254;50.956;7.010;2022-10-19T14:44:41;18.90;90.50
5274;DHT22;56254;50.956;7.010;2022-10-19T14:47:17;19.00;90.40
5274;DHT22;56254;50.956;7.010;2022-10-19T14:49:43;19.00;90.90
5274;DHT22;56254;50.956;7.010;2022-10-19T14:52:12;18.90;91.40
5274;DHT22;56254;50.956;7.010;2022-10-19T14:54:42;18.90;90.90
5274;DHT22;56254;50.956;7.010;2022-10-19T14:57:19;18.80;91.10
5274;DHT22;56254;50.956;7.010;2022-10-19T14:59:52;18.80;91.10
5274;DHT22;56254;50.956;7.010;2022-10-19T15:05:55;18.80;91.70
5274;DHT22;56254;50.956;7.010;2022-10-19T15:08:39;18.90;90.60
5274;DHT22;56254;50.956;7.010;2022-10-19T15:11:18;19.00;90.90
5274;DHT22;56254;50.956;7.010;2022-10-19T15:14:13;19.10;90.90
5274;DHT22;56254;50.956;7.010;2022-10-19T15:16:53;19.30;91.00
5274;DHT22;56254;50.956;7.010;2022-10-19T15:19:31;19.30;90.90
5274;DHT22;56254;50.956;7.010;2022-10-19T15:22:13;19.30;90.30
5274;DHT22;56254;50.956;7.010;2022-10-19T15:30:34;19.40;90.60
5274;DHT22;56254;50.956;7.010;2022-10-19T15:33:19;19.30;90.60
5274;DHT22;56254;50.956;7.010;2022-10-19T15:36:10;19.30;90.00
5274;DHT22;56254;50.956;7.010;2022-10-19T15:39:11;19.00;90.70
5274;DHT22;56254;50.956;7.010;2022-10-19T15:41:42;18.90;90.50
5274;DHT22;56254;50.956;7.010;2022-10-19T15:44:39;18.80;90.90
5274;DHT22;56254;50.956;7.010;2022-10-19T15:50:00;18.50;92.20
5274;DHT22;56254;50.956;7.010;2022-10-19T15:52:34;18.40;92.50
5274;DHT22;56254;50.956;7.010;2022-10-19T15:55:04;18.30;91.80
5274;DHT22;56254;50.956;7.010;2022-10-19T15:57:33;18.10;93.80
5274;DHT22;56254;50.956;7.010;2022-10-19T16:00:11;18.00;93.00
5274;DHT22;56254;50.956;7.010;2022-10-19T16:02:47;17.90;93.70
5274;DHT22;56254;50.956;7.010;2022-10-19T16:05:35;17.90;94.40
5274;DHT22;56254;50.956;7.010;2022-10-19T16:13:06;15.90;99.90
5274;DHT22;56254;50.956;7.010;2022-10-19T16:15:35;16.10;99.60
5274;DHT22;56254;50.956;7.010;2022-10-19T16:18:17;17.00;96.60
5274;DHT22;56254;50.956;7.010;2022-10-19T16:20:42;17.20;96.10
5274;DHT22;56254;50.956;7.010;2022-10-19T16:23:16;17.10;96.00
5274;DHT22;56254;50.956;7.010;2022-10-19T16:25:49;17.10;96.30
5274;DHT22;56254;50.956;7.010;2022-10-19T16:28:17;17.00;96.40
5274;DHT22;56254;50.956;7.010;2022-10-19T16:30:52;16.90;97.00
5274;DHT22;56254;50.956;7.010;2022-10-19T16:33:36;16.60;97.70
5274;DHT22;56254;50.956;7.010;2022-10-19T16:36:21;16.70;97.80
5274;DHT22;56254;50.956;7.010;2022-10-19T16:38:47;16.60;97.40
5274;DHT22;56254;50.956;7.010;2022-10-19T16:41:14;16.60;97.50
5274;DHT22;56254;50.956;7.010;2022-10-19T16:43:56;16.50;97.50
5274;DHT22;56254;50.956;7.010;2022-10-19T16:49:23;16.40;98.10
5274;DHT22;56254;50.956;7.010;2022-10-19T16:51:51;16.30;98.40
5274;DHT22;56254;50.956;7.010;2022-10-19T16:54:24;16.20;98.70
5274;DHT22;56254;50.956;7.010;2022-10-19T16:57:00;16.20;98.90
5274;DHT22;56254;50.956;7.010;2022-10-19T16:59:26;16.10;98.90
5274;DHT22;56254;50.956;7.010;2022-10-19T17:01:53;16.10;98.70
5274;DHT22;56254;50.956;7.010;2022-10-19T17:04:19;16.00;98.50
5274;DHT22;56254;50.956;7.010;2022-10-19T17:06:45;16.00;98.80
5274;DHT22;56254;50.956;7.010;2022-10-19T17:09:11;16.00;98.40
5274;DHT22;56254;50.956;7.010;2022-10-19T17:11:37;15.90;98.30
5274;DHT22;56254;50.956;7.010;2022-10-19T17:14:10;15.80;98.30
5274;DHT22;56254;50.956;7.010;2022-10-19T17:16:41;15.80;98.70
5274;DHT22;56254;50.956;7.010;2022-10-19T17:19:10;15.80;98.80
5274;DHT22;56254;50.956;7.010;2022-10-19T17:21:38;15.80;98.80
5274;DHT22;56254;50.956;7.010;2022-10-19T17:24:07;15.70;98.50
5274;DHT22;56254;50.956;7.010;2022-10-19T17:26:42;15.60;98.30
5274;DHT22;56254;50.956;7.010;2022-10-19T17:29:24;15.60;98.40
5274;DHT22;56254;50.956;7.010;2022-10-19T17:31:51;15.60;98.60
5274;DHT22;56254;50.956;7.010;2022-10-19T17:34:17;15.50;98.70
5274;DHT22;56254;50.956;7.010;2022-10-19T17:36:44;15.50;98.10
5274;DHT22;56254;50.956;7.010;2022-10-19T17:39:20;15.40;97.60
5274;DHT22;56254;50.956;7.010;2022-10-19T17:42:06;15.40;99.20
5274;DHT22;56254;50.956;7.010;2022-10-19T17:44:49;15.50;98.10
